Time;durP1;ratioP1;P1;durP2;ratioP2;P2;SDS_P1;SDS_P2;PMS_P1;PMS_P2;Temp;Humidity;BMP_temperature;BMP_pressure;BME280_temperature;BME280_humidity;BME280_pressure;Samples;Min_cycle;Max_cycle;Signal;HPM_P1;HPM_P2
2023/12/15 00:00:00;;;;;;;3.50;3.15;;;;;;;;;;5071384;28;20041;-25
2023/12/15 00:02:28;;;;;;;3.08;2.78;;;19.30;68.50;;;;;;5051512;28;20128;-23
2023/12/15 00:04:55;;;;;;;3.90;3.20;;;19.40;68.90;;;;;;5051516;28;20106;-29
2023/12/15 00:07:22;;;;;;;3.47;2.92;;;20.00;55.90;;;;;;5051135;28;20049;-27
2023/12/15 00:09:48;;;;;;;3.88;3.08;;;19.80;68.70;;;;;;5051236;28;20049;-27
2023/12/15 00:12:15;;;;;;;3.22;2.85;;;18.60;68.40;;;;;;5051243;28;20468;-25
2023/12/15 00:14:42;;;;;;;2.90;2.58;;;;;;;;;;5051216;28;21843;-25
2023/12/15 00:17:09;;;;;;;3.20;2.90;;;20.30;69.50;;;;;;5051111;28;20053;-25
2023/12/15 00:19:37;;;;;;;4.10;2.83;;;19.30;60.10;;;;;;5067590;28;20110;-24
2023/12/15 00:22:04;;;;;;;3.85;2.95;;;19.30;65.50;;;;;;5071324;28;20048;-29
2023/12/15 00:24:31;;;;;;;4.07;3.30;;;19.50;49.60;;;;;;5071081;28;20102;-30
2023/12/15 00:26:59;;;;;;;3.92;3.08;;;;;;;;;;5071097;28;20098;-27
2023/12/15 00:29:26;;;;;;;3.83;3.30;;;;;;;;;;5070925;28;20494;-25
2023/12/15 00:31:53;;;;;;;3.67;3.17;;;19.10;68.70;;;;;;5066390;28;20049;-25
2023/12/15 00:34:20;;;;;;;3.30;3.00;;;;;;;;;;5051315;28;20107;-26
2023/12/15 00:36:48;;;;;;;4.10;3.70;;;19.40;48.70;;;;;;5058218;28;20048;-32
2023/12/15 00:39:15;;;;;;;3.78;3.00;;;19.50;69.40;;;;;;5071076;28;20049;-28
2023/12/15 00:41:42;;;;;;;3.17;2.80;;;20.00;69.30;;;;;;5070541;28;20575;-27
2023/12/15 00:44:09;;;;;;;3.33;2.90;;;19.50;64.10;;;;;;5071103;28;20645;-27
2023/12/15 00:46:36;;;;;;;3.33;2.97;;;18.80;68.70;;;;;;5071001;28;20447;-25
2023/12/15 00:49:03;;;;;;;3.90;3.13;;;;;;;;;;5064628;28;20576;-26
2023/12/15 00:51:30;;;;;;;3.58;2.90;;;;;;;;;;5058852;28;20502;-26
2023/12/15 00:53:58;;;;;;;3.75;3.20;;;19.30;48.90;;;;;;5051028;28;20476;-26
2023/12/15 00:56:25;;;;;;;4.35;3.10;;;19.00;55.50;;;;;;5050908;28;20052;-25
2023/12/15 00:58:52;;;;;;;3.90;2.90;;;19.30;69.20;;;;;;5054336;28;20049;-24
2023/12/15 01:01:19;;;;;;;3.65;3.13;;;;;;;;;;5054118;28;20517;-27
2023/12/15 01:03:46;;;;;;;3.78;3.17;;;18.80;69.20;;;;;;5054361;28;20510;-24
2023/12/15 01:06:13;;;;;;;3.63;3.00;;;19.00;69.10;;;;;;5055469;28;20591;-24
2023/12/15 01:08:40;;;;;;;3.90;2.70;;;19.40;57.60;;;;;;5054064;28;20049;-31
2023/12/15 01:11:08;;;;;;;3.95;3.08;;;18.20;69.00;;;;;;5054136;28;20045;-30
2023/12/15 01:13:35;;;;;;;3.80;2.90;;;19.40;69.70;;;;;;5054068;28;20080;-31
2023/12/15 01:16:05;;;;;;;3.90;3.00;;;18.80;52.30;;;;;;5053941;28;20111;-31
2023/12/15 01:18:32;;;;;;;4.18;3.53;;;19.40;54.70;;;;;;5061753;28;20414;-25
2023/12/15 01:20:59;;;;;;;3.50;3.05;;;19.10;69.50;;;;;;5073765;28;20540;-25
2023/12/15 01:23:26;;;;;;;3.60;3.10;;;;;;;;;;5068830;28;20059;-28
2023/12/15 01:25:53;;;;;;;4.65;3.30;;;;;;;;;;5074065;28;20048;-27
2023/12/15 01:28:21;;;;;;;3.92;3.35;;;18.10;58.60;;;;;;5073674;28;20497;-27
2023/12/15 01:30:48;;;;;;;4.53;3.28;;;19.20;65.00;;;;;;5073736;28;20440;-28
2023/12/15 01:33:15;;;;;;;4.00;3.30;;;20.20;69.90;;;;;;5073659;28;20460;-29
2023/12/15 01:35:42;;;;;;;4.20;3.47;;;;;;;;;;5073736;28;20502;-26
2023/12/15 01:38:09;;;;;;;4.25;3.30;;;18.70;69.40;;;;;;5072466;28;20106;-24
2023/12/15 01:40:36;;;;;;;4.10;3.10;;;;;;;;;;5072580;28;20057;-26
2023/12/15 01:43:03;;;;;;;3.65;3.00;;;19.20;56.40;;;;;;5073505;28;20094;-28
2023/12/15 01:45:32;;;;;;;3.92;3.10;;;15.60;47.00;;;;;;5073447;28;20067;-27
2023/12/15 01:47:59;;;;;;;3.65;2.90;;;19.00;58.70;;;;;;5067496;28;20053;-30
2023/12/15 01:50:26;;;;;;;4.15;2.90;;;19.50;69.80;;;;;;5053286;28;20049;-29
2023/12/15 01:52:53;;;;;;;3.55;2.90;;;;;;;;;;5053180;28;20080;-28
2023/12/15 01:55:20;;;;;;;3.85;2.92;;;19.40;69.80;;;;;;5054645;28;20045;-24
2023/12/15 01:57:47;;;;;;;3.65;2.80;;;;;;;;;;5052305;28;20110;-26
2023/12/15 02:00:14;;;;;;;4.47;2.75;;;18.60;60.90;;;;;;5053207;28;20052;-29
2023/12/15 02:02:42;;;;;;;3.40;2.80;;;18.70;52.70;;;;;;5053328;28;20170;-27
2023/12/15 02:05:09;;;;;;;2.83;2.53;;;19.50;60.90;;;;;;5053209;28;20053;-25
2023/12/15 02:07:36;;;;;;;3.08;2.50;;;;;;;;;;5052447;28;20049;-24
2023/12/15 02:10:04;;;;;;;3.97;2.95;;;19.70;58.70;;;;;;5053054;28;20045;-25
2023/12/15 02:12:31;;;;;;;3.25;2.72;;;;;;;;;;5061756;28;20072;-27
2023/12/15 02:14:58;;;;;;;3.67;2.88;;;19.60;69.30;;;;;;5073000;28;20102;-29
2023/12/15 02:17:25;;;;;;;3.28;2.85;;;;;;;;;;5072569;28;20491;-30
2023/12/15 02:19:54;;;;;;;3.25;2.88;;;19.80;56.60;;;;;;5054148;28;20460;-23
2023/12/15 02:22:26;;;;;;;3.38;2.60;;;19.00;69.10;;;;;;5052740;28;20107;-25
2023/12/15 02:24:53;;;;;;;4.03;2.83;;;;;;;;;;5052830;28;20084;-27
2023/12/15 02:27:20;;;;;;;2.85;2.55;;;19.20;52.10;;;;;;5053997;28;20114;-26
2023/12/15 02:29:47;;;;;;;3.30;2.78;;;19.20;63.10;;;;;;5052415;28;20049;-24
2023/12/15 02:32:14;;;;;;;3.67;2.78;;;;;;;;;;5034705;28;20391;-25
2023/12/15 02:34:40;;;;;;;3.17;2.70;;;19.40;69.20;;;;;;5052364;28;20545;-25
2023/12/15 02:37:07;;;;;;;4.07;2.97;;;18.50;60.60;;;;;;5062783;28;20106;-25
2023/12/15 02:39:35;;;;;;;2.90;2.60;;;19.40;68.90;;;;;;5072497;28;20052;-29
2023/12/15 02:42:02;;;;;;;3.58;3.05;;;20.40;69.40;;;;;;5058582;28;20053;-25
2023/12/15 02:44:28;;;;;;;3.28;2.60;;;19.50;64.90;;;;;;5060187;28;20121;-30
2023/12/15 02:46:55;;;;;;;3.33;2.80;;;19.60;69.30;;;;;;5072302;28;20490;-34
2023/12/15 02:49:22;;;;;;;3.92;3.10;;;;;;;;;;5072202;28;20052;-26
2023/12/15 02:51:49;;;;;;;3.40;2.95;;;18.70;68.80;;;;;;5072237;28;20045;-24
2023/12/15 02:54:16;;;;;;;3.17;2.80;;;;;;;;;;5072338;28;20110;-24
2023/12/15 02:56:45;;;;;;;3.55;2.80;;;19.40;68.90;;;;;;5072024;28;20052;-29
2023/12/15 02:59:12;;;;;;;3.95;3.13;;;19.40;69.30;;;;;;5056386;28;20091;-29
2023/12/15 03:01:39;;;;;;;4.53;3.33;;;;;;;;;;5052067;28;20044;-27
2023/12/15 03:04:06;;;;;;;3.45;3.10;;;20.60;66.50;;;;;;5052302;28;20057;-27
2023/12/15 03:06:32;;;;;;;4.45;3.05;;;18.20;68.60;;;;;;5052248;28;20052;-27
2023/12/15 03:08:59;;;;;;;4.28;3.00;;;;;;;;;;5051571;28;20103;-27
2023/12/15 03:11:26;;;;;;;3.78;3.15;;;19.20;69.10;;;;;;5051981;28;20045;-27
2023/12/15 03:13:55;;;;;;;4.05;3.28;;;19.80;55.50;;;;;;5051879;28;20053;-27
2023/12/15 03:16:22;;;;;;;3.80;2.80;;;20.40;62.30;;;;;;5052994;28;20110;-26
2023/12/15 03:18:49;;;;;;;3.58;2.90;;;;;;;;;;5061716;28;20101;-25
2023/12/15 03:21:16;;;;;;;3.58;2.90;;;19.50;69.20;;;;;;5070830;28;20049;-27
2023/12/15 03:23:43;;;;;;;3.30;2.80;;;;;;;;;;5071916;28;20094;-27
2023/12/15 03:26:10;;;;;;;3.63;2.80;;;19.10;68.70;;;;;;5071682;28;20052;-27
2023/12/15 03:28:39;;;;;;;3.58;2.90;;;19.30;48.60;;;;;;5071541;28;20048;-26
2023/12/15 03:31:08;;;;;;;3.72;2.90;;;18.90;59.90;;;;;;5071052;28;20049;-27
2023/12/15 03:33:36;;;;;;;4.18;3.10;;;19.80;69.10;;;;;;5051533;28;20494;-30
2023/12/15 03:36:03;;;;;;;4.32;2.70;;;19.40;68.90;;;;;;5052724;28;20514;-27
2023/12/15 03:38:30;;;;;;;3.58;2.67;;;;;;;;;;5071376;28;20485;-26
2023/12/15 03:40:57;;;;;;;4.00;2.80;;;18.90;69.00;;;;;;5061633;28;20056;-27
2023/12/15 03:43:24;;;;;;;4.35;2.72;;;;;;;;;;5051289;28;20457;-26
2023/12/15 03:45:51;;;;;;;4.03;3.00;;;20.50;69.20;;;;;;5051688;28;20388;-30
2023/12/15 03:48:19;;;;;;;4.40;2.67;;;19.40;48.50;;;;;;5051136;28;20521;-25
2023/12/15 03:50:47;;;;;;;4.13;3.00;;;;;;;;;;5071615;28;20083;-26
2023/12/15 03:53:14;;;;;;;3.95;2.50;;;19.10;68.90;;;;;;5071583;28;20437;-29
2023/12/15 03:55:40;;;;;;;3.13;2.50;;;19.80;59.00;;;;;;5071390;28;20497;-25
2023/12/15 03:58:07;;;;;;;3.78;2.67;;;19.50;69.10;;;;;;5071214;28;20052;-25
2023/12/15 04:00:34;;;;;;;2.90;2.50;;;;;;;;;;5071320;28;20097;-24
2023/12/15 04:03:02;;;;;;;4.30;2.47;;;;;;;;;;5071387;28;20049;-24
2023/12/15 04:05:30;;;;;;;4.13;2.60;;;19.40;48.40;;;;;;5069653;28;20505;-27
2023/12/15 04:07:57;;;;;;;3.60;2.30;;;;;;;;;;5071003;28;20098;-26
2023/12/15 04:10:24;;;;;;;3.58;2.50;;;19.20;68.50;;;;;;5071420;28;20052;-24
2023/12/15 04:12:51;;;;;;;3.15;2.30;;;;;;;;;;5070863;28;20386;-26
2023/12/15 04:15:19;;;;;;;3.35;2.58;;;20.00;69.20;;;;;;5071277;28;20048;-24
2023/12/15 04:17:46;;;;;;;4.05;2.60;;;19.60;68.60;;;;;;5069433;28;20079;-25
2023/12/15 04:20:13;;;;;;;3.00;2.50;;;19.50;68.90;;;;;;5033327;28;20651;-24
2023/12/15 04:22:41;;;;;;;4.22;2.40;;;19.70;68.50;;;;;;5052080;28;20087;-25
2023/12/15 04:25:08;;;;;;;4.15;3.00;;;20.00;68.60;;;;;;5051220;28;20076;-28
2023/12/15 04:27:35;;;;;;;2.78;2.20;;;;;;;;;;5051042;28;20091;-26
2023/12/15 04:30:02;;;;;;;3.88;2.67;;;19.40;55.30;;;;;;5051029;28;20057;-25
2023/12/15 04:32:29;;;;;;;3.28;2.20;;;19.90;50.10;;;;;;5054477;28;20055;-27
2023/12/15 04:34:56;;;;;;;2.80;2.25;;;19.40;68.10;;;;;;5054725;28;20049;-29
2023/12/15 04:37:23;;;;;;;3.38;2.40;;;;;;;;;;5055648;28;20783;-29
2023/12/15 04:39:51;;;;;;;3.50;2.30;;;19.30;68.30;;;;;;5061601;28;20044;-28
2023/12/15 04:42:18;;;;;;;3.00;2.30;;;19.70;68.20;;;;;;5074575;28;20102;-30
2023/12/15 04:44:45;;;;;;;4.00;2.45;;;19.60;55.50;;;;;;5074771;28;20056;-29
2023/12/15 04:47:12;;;;;;;2.65;2.20;;;;;;;;;;5074630;28;20101;-29
2023/12/15 04:49:39;;;;;;;4.28;2.50;;;19.80;68.10;;;;;;5074440;28;20114;-27
2023/12/15 04:52:06;;;;;;;3.15;2.30;;;20.30;51.10;;;;;;5074190;28;20106;-27
2023/12/15 04:54:33;;;;;;;3.35;2.40;;;;;;;;;;5074671;28;20053;-25
2023/12/15 04:57:01;;;;;;;4.03;2.42;;;20.40;50.10;;;;;;5072812;28;20045;-26
2023/12/15 04:59:29;;;;;;;3.83;2.28;;;;;;;;;;5074339;28;20485;-25
2023/12/15 05:01:56;;;;;;;2.58;2.00;;;;;;;;;;5074643;28;20086;-25
2023/12/15 05:04:22;;;;;;;3.67;2.38;;;19.90;63.60;;;;;;5074409;28;20462;-24
2023/12/15 05:06:49;;;;;;;3.17;2.10;;;20.90;68.70;;;;;;5074413;28;20044;-31
2023/12/15 05:09:16;;;;;;;3.47;2.47;;;;;;;;;;5074162;28;20044;-32
2023/12/15 05:11:43;;;;;;;3.20;1.90;;;19.90;68.30;;;;;;5073954;28;20052;-24
2023/12/15 05:14:11;;;;;;;2.95;2.20;;;18.80;67.50;;;;;;5072490;28;20082;-32
2023/12/15 05:16:39;;;;;;;4.60;2.58;;;20.00;68.30;;;;;;5074042;28;20048;-23
2023/12/15 05:19:07;;;;;;;3.60;2.30;;;;;;;;;;5043573;28;20099;-24
2023/12/15 05:21:34;;;;;;;2.88;2.30;;;19.80;53.30;;;;;;5053638;28;20107;-24
2023/12/15 05:24:00;;;;;;;2.90;2.10;;;20.00;67.90;;;;;;5054192;28;20210;-31
2023/12/15 05:26:27;;;;;;;4.47;2.30;;;20.20;61.30;;;;;;5053824;28;20044;-31
2023/12/15 05:28:54;;;;;;;3.83;2.20;;;19.20;67.80;;;;;;5053139;28;20445;-32
2023/12/15 05:31:22;;;;;;;3.22;2.13;;;20.00;47.80;;;;;;5066503;28;20532;-28
2023/12/15 05:33:49;;;;;;;4.28;2.35;;;;;;;;;;5061112;28;20095;-26
2023/12/15 05:36:19;;;;;;;3.92;2.30;;;20.20;68.10;;;;;;5056574;28;20037;-24
2023/12/15 05:38:46;;;;;;;4.22;2.40;;;19.40;67.90;;;;;;5073629;28;20133;-25
2023/12/15 05:41:13;;;;;;;4.07;2.40;;;;;;;;;;5073580;28;20613;-27
2023/12/15 05:43:40;;;;;;;4.18;2.33;;;20.20;55.30;;;;;;5072634;28;20052;-24
2023/12/15 05:46:08;;;;;;;3.65;2.40;;;;;;;;;;5073416;28;20498;-26
2023/12/15 05:48:36;;;;;;;3.05;2.28;;;20.00;60.10;;;;;;5056865;28;20095;-25
2023/12/15 05:51:03;;;;;;;4.65;2.30;;;21.10;68.60;;;;;;5053437;28;20486;-25
2023/12/15 05:53:30;;;;;;;4.60;2.63;;;;;;;;;;5053530;28;20061;-27
2023/12/15 05:55:57;;;;;;;3.78;2.03;;;19.80;67.60;;;;;;5053393;28;20130;-30
2023/12/15 05:58:24;;;;;;;3.10;2.10;;;;;;;;;;5053113;28;20057;-28
2023/12/15 06:00:51;;;;;;;3.10;2.10;;;19.20;67.20;;;;;;5052984;28;20049;-25
2023/12/15 06:03:18;;;;;;;2.83;2.00;;;20.00;68.10;;;;;;5053170;28;20501;-24
2023/12/15 06:05:46;;;;;;;3.92;2.28;;;19.20;67.20;;;;;;5066160;28;20497;-24
2023/12/15 06:08:13;;;;;;;2.75;2.00;;;21.00;66.70;;;;;;5064551;28;20049;-25
2023/12/15 06:10:41;;;;;;;2.88;1.98;;;20.00;47.80;;;;;;5053003;28;20057;-25
2023/12/15 06:13:09;;;;;;;4.03;2.20;;;;;;;;;;5052887;28;20049;-26
2023/12/15 06:15:36;;;;;;;3.53;2.08;;;19.60;59.90;;;;;;5053326;28;20053;-29
2023/12/15 06:18:05;;;;;;;3.83;2.17;;;20.70;68.20;;;;;;5056690;28;20698;-25
2023/12/15 06:20:31;;;;;;;2.75;2.10;;;19.90;67.80;;;;;;5068565;28;20394;-25
2023/12/15 06:23:00;;;;;;;3.30;2.40;;;20.00;47.80;;;;;;5046126;28;20049;-23
2023/12/15 06:25:27;;;;;;;3.45;2.28;;;20.70;51.30;;;;;;5052807;28;20131;-26
2023/12/15 06:27:54;;;;;;;4.13;2.30;;;20.10;67.90;;;;;;5052471;28;20558;-24
2023/12/15 06:30:21;;;;;;;3.60;2.28;;;20.20;68.30;;;;;;5067600;28;20056;-25
2023/12/15 06:32:47;;;;;;;4.03;2.28;;;20.60;68.40;;;;;;5072073;28;20044;-31
2023/12/15 06:35:16;;;;;;;2.78;2.05;;;19.80;67.80;;;;;;5072255;28;20045;-27
2023/12/15 06:37:43;;;;;;;3.47;2.00;;;;;;;;;;5072064;28;20480;-25
2023/12/15 06:40:12;;;;;;;3.78;2.00;;;21.30;68.50;;;;;;5072261;28;20052;-27
2023/12/15 06:42:39;;;;;;;4.03;1.95;;;;;;;;;;5072545;28;20050;-27
2023/12/15 06:45:08;;;;;;;3.30;2.10;;;20.20;67.90;;;;;;5072477;28;20052;-29
2023/12/15 06:47:37;;;;;;;4.22;2.45;;;20.00;47.80;;;;;;5072445;28;20097;-27
2023/12/15 06:50:05;;;;;;;3.58;2.25;;;20.00;47.80;;;;;;5071453;28;20424;-24
2023/12/15 06:52:33;;;;;;;3.15;2.00;;;20.40;61.10;;;;;;5071783;28;20052;-26
2023/12/15 06:55:00;;;;;;;4.93;2.30;;;20.00;47.90;;;;;;5072424;28;20052;-26
2023/12/15 06:57:28;;;;;;;3.53;2.00;;;19.70;68.00;;;;;;5071993;28;20170;-24
2023/12/15 06:59:55;;;;;;;5.47;2.10;;;19.80;50.00;;;;;;5072125;28;20048;-25
2023/12/15 07:02:22;;;;;;;3.65;2.13;;;;;;;;;;5071992;28;20178;-26
2023/12/15 07:04:49;;;;;;;3.40;1.90;;;21.00;68.70;;;;;;5071875;28;20098;-25
2023/12/15 07:07:16;;;;;;;3.20;2.13;;;;;;;;;;5070407;28;20048;-27
2023/12/15 07:09:43;;;;;;;3.55;2.13;;;19.00;67.30;;;;;;5071737;28;20048;-28
2023/12/15 07:12:10;;;;;;;4.70;2.03;;;;;;;;;;5072092;28;20109;-28
2023/12/15 07:14:38;;;;;;;2.72;1.90;;;19.60;50.50;;;;;;5071567;28;20053;-30
2023/12/15 07:17:05;;;;;;;4.75;2.05;;;19.80;68.00;;;;;;5072010;28;20053;-30
2023/12/15 07:19:33;;;;;;;2.53;1.83;;;;;;;;;;5059834;28;20047;-28
2023/12/15 07:22:00;;;;;;;3.83;2.33;;;;;;;;;;5051660;28;20103;-25
2023/12/15 07:24:27;;;;;;;3.75;2.30;;;;;;;;;;5051475;28;20437;-27
2023/12/15 07:26:54;;;;;;;2.85;1.90;;;;;;;;;;5051593;28;20053;-25
2023/12/15 07:29:22;;;;;;;4.03;2.20;;;19.30;62.10;;;;;;5051614;28;20045;-25
2023/12/15 07:31:50;;;;;;;3.28;1.95;;;20.00;47.80;;;;;;5051644;28;20059;-25
2023/12/15 07:34:18;;;;;;;4.05;2.22;;;21.20;64.80;;;;;;5051678;28;20048;-24
2023/12/15 07:36:45;;;;;;;3.03;2.20;;;;;;;;;;5050979;28;20055;-26
2023/12/15 07:39:12;;;;;;;3.67;2.15;;;19.90;68.00;;;;;;5051574;28;20103;-29
2023/12/15 07:41:39;;;;;;;3.83;2.17;;;19.90;67.70;;;;;;5051436;28;20206;-31
2023/12/15 07:44:06;;;;;;;2.70;1.85;;;19.80;68.00;;;;;;5051491;28;20048;-30
2023/12/15 07:46:34;;;;;;;3.83;2.00;;;;;;;;;;5051551;28;20052;-28
2023/12/15 07:49:02;;;;;;;3.25;2.17;;;20.10;47.80;;;;;;5051056;28;20052;-31
2023/12/15 07:51:29;;;;;;;3.70;1.90;;;19.90;59.40;;;;;;5051254;28;20041;-29
2023/12/15 07:53:56;;;;;;;3.10;1.85;;;19.80;63.10;;;;;;5049364;28;20441;-25
2023/12/15 07:56:23;;;;;;;3.45;2.13;;;21.00;68.30;;;;;;5050832;28;20044;-24
2023/12/15 07:58:50;;;;;;;3.70;2.30;;;18.90;55.50;;;;;;5050605;28;20140;-27
2023/12/15 08:01:18;;;;;;;2.97;1.80;;;;;;;;;;5050572;28;20132;-25
2023/12/15 08:03:44;;;;;;;4.32;2.20;;;20.20;68.10;;;;;;5054964;28;20044;-25
2023/12/15 08:06:13;;;;;;;4.03;2.05;;;20.00;68.00;;;;;;5052628;28;20731;-29
2023/12/15 08:08:40;;;;;;;3.53;1.85;;;19.40;60.50;;;;;;5055420;28;20049;-27
2023/12/15 08:11:07;;;;;;;3.90;1.90;;;21.10;68.70;;;;;;5055347;28;20456;-28
2023/12/15 08:13:34;;;;;;;3.53;2.00;;;;;;;;;;5068943;28;20068;-28
2023/12/15 08:16:03;;;;;;;2.80;2.00;;;19.20;67.30;;;;;;5075136;28;20464;-24
2023/12/15 08:18:29;;;;;;;2.83;2.03;;;19.60;68.00;;;;;;5067861;28;20047;-30
2023/12/15 08:20:56;;;;;;;4.07;1.98;;;;;;;;;;5055352;28;20045;-27
2023/12/15 08:23:25;;;;;;;4.00;2.20;;;20.00;53.10;;;;;;5074161;28;20559;-25
2023/12/15 08:25:52;;;;;;;3.28;2.17;;;;;;;;;;5075247;28;20394;-26
2023/12/15 08:28:20;;;;;;;3.38;1.85;;;20.60;57.20;;;;;;5074709;28;20097;-27
2023/12/15 08:30:47;;;;;;;3.55;2.00;;;20.50;59.70;;;;;;5056288;28;20106;-26
2023/12/15 08:33:14;;;;;;;4.50;2.13;;;20.90;51.30;;;;;;5055080;28;20087;-24
2023/12/15 08:35:41;;;;;;;3.08;1.80;;;;;;;;;;5055007;28;20049;-25
2023/12/15 08:38:08;;;;;;;3.83;2.10;;;20.10;67.50;;;;;;5061652;28;20049;-28
2023/12/15 08:40:36;;;;;;;4.85;1.77;;;19.90;47.50;;;;;;5054763;28;20057;-30
2023/12/15 08:43:03;;;;;;;3.38;1.80;;;20.00;55.70;;;;;;5054809;28;20041;-28
2023/12/15 08:45:30;;;;;;;3.45;1.85;;;20.40;67.60;;;;;;5054578;28;20084;-24
2023/12/15 08:47:57;;;;;;;3.95;2.00;;;;;;;;;;5054784;28;20048;-27
2023/12/15 08:50:24;;;;;;;3.17;1.80;;;21.10;53.30;;;;;;5054425;28;20411;-25
2023/12/15 08:52:50;;;;;;;2.63;1.63;;;20.10;67.40;;;;;;5054807;28;20052;-23
2023/12/15 08:55:18;;;;;;;4.28;1.98;;;;;;;;;;5054305;28;20053;-26
2023/12/15 08:57:46;;;;;;;3.55;1.83;;;20.50;67.60;;;;;;5054468;28;20118;-24
2023/12/15 09:00:13;;;;;;;3.80;2.10;;;21.00;67.80;;;;;;5056911;28;20045;-24
2023/12/15 09:02:40;;;;;;;3.72;2.00;;;20.40;66.70;;;;;;5060264;28;20491;-27
2023/12/15 09:05:07;;;;;;;3.50;2.00;;;;;;;;;;5062523;28;20086;-27
2023/12/15 09:07:34;;;;;;;5.60;2.45;;;20.40;63.50;;;;;;5062532;28;20086;-30
2023/12/15 09:10:02;;;;;;;3.60;1.92;;;20.60;67.40;;;;;;5053433;28;20395;-29
2023/12/15 09:12:29;;;;;;;2.80;1.65;;;;;;;;;;5054918;28;20049;-26
2023/12/15 09:14:57;;;;;;;3.13;1.70;;;21.00;47.50;;;;;;5054662;28;20468;-27
2023/12/15 09:17:24;;;;;;;4.43;1.98;;;20.80;53.10;;;;;;5061678;28;20053;-25
2023/12/15 09:19:51;;;;;;;3.35;1.85;;;21.00;67.40;;;;;;5062603;28;20410;-24
2023/12/15 09:22:18;;;;;;;4.82;1.90;;;21.00;47.40;;;;;;5063429;28;20048;-27
2023/12/15 09:24:45;;;;;;;4.55;2.10;;;21.20;66.90;;;;;;5064344;28;20090;-27
2023/12/15 09:27:12;;;;;;;4.38;1.88;;;21.40;67.40;;;;;;5063138;28;20048;-24
2023/12/15 09:29:38;;;;;;;5.45;1.80;;;21.10;55.00;;;;;;5063758;28;20041;-25
2023/12/15 09:32:07;;;;;;;4.15;1.90;;;21.10;66.80;;;;;;5062741;28;20090;-25
2023/12/15 09:34:33;;;;;;;3.65;1.70;;;21.00;66.80;;;;;;5063747;28;20485;-25
2023/12/15 09:37:01;;;;;;;4.22;2.25;;;;;;;;;;5062487;28;20095;-27
2023/12/15 09:39:28;;;;;;;3.63;1.70;;;21.30;66.70;;;;;;5062275;28;20061;-25
2023/12/15 09:41:55;;;;;;;2.88;1.70;;;21.40;54.80;;;;;;5063086;28;20044;-26
2023/12/15 09:44:22;;;;;;;5.80;1.95;;;;;;;;;;5064223;28;20494;-31
2023/12/15 09:46:49;;;;;;;4.35;1.77;;;;;;;;;;5059092;28;20045;-27
2023/12/15 09:49:18;;;;;;;3.28;1.90;;;21.40;67.00;;;;;;5063907;28;20102;-29
2023/12/15 09:51:48;;;;;;;4.55;1.90;;;21.10;49.80;;;;;;5063358;28;20049;-26
2023/12/15 09:54:15;;;;;;;3.13;1.77;;;;;;;;;;5053466;28;20045;-27
2023/12/15 09:56:42;;;;;;;2.78;1.73;;;21.60;67.30;;;;;;5053129;28;20564;-30
2023/12/15 09:59:09;;;;;;;4.13;1.80;;;;;;;;;;5052928;28;20080;-27
2023/12/15 10:01:37;;;;;;;3.90;1.77;;;21.70;62.40;;;;;;5052668;28;20575;-32
2023/12/15 10:04:04;;;;;;;2.83;1.70;;;21.50;66.80;;;;;;5052638;28;20067;-25
2023/12/15 10:06:35;;;;;;;3.92;1.77;;;21.50;47.10;;;;;;5052791;28;20049;-26
2023/12/15 10:09:02;;;;;;;3.75;2.13;;;21.40;54.80;;;;;;5052812;28;20049;-26
2023/12/15 10:11:29;;;;;;;2.83;1.60;;;21.50;49.20;;;;;;5034305;28;20061;-27
2023/12/15 10:13:56;;;;;;;3.13;1.60;;;21.40;66.20;;;;;;5035851;28;20045;-26
2023/12/15 10:16:23;;;;;;;3.63;1.52;;;20.60;66.10;;;;;;5062211;28;20040;-30
2023/12/15 10:18:50;;;;;;;3.75;1.77;;;20.70;50.10;;;;;;5061518;28;20102;-26
2023/12/15 10:21:17;;;;;;;3.58;1.58;;;22.00;66.80;;;;;;5062473;28;20045;-24
2023/12/15 10:23:45;;;;;;;2.78;1.45;;;21.30;52.00;;;;;;5062877;28;20391;-25
2023/12/15 10:26:12;;;;;;;2.60;1.33;;;21.60;55.00;;;;;;5059909;28;20095;-27
2023/12/15 10:28:39;;;;;;;2.60;1.60;;;21.00;65.70;;;;;;5052499;28;20048;-29
2023/12/15 10:31:06;;;;;;;2.88;1.60;;;21.40;49.20;;;;;;5052817;28;20071;-27
2023/12/15 10:33:33;;;;;;;4.28;1.80;;;22.70;66.60;;;;;;5058043;28;20102;-25
2023/12/15 10:36:01;;;;;;;3.85;1.60;;;22.90;58.60;;;;;;5064022;28;20053;-30
2023/12/15 10:38:28;;;;;;;2.15;1.50;;;21.50;49.60;;;;;;5072790;28;20091;-29
2023/12/15 10:40:57;;;;;;;2.40;1.58;;;21.00;65.70;;;;;;5072532;28;20123;-33
2023/12/15 10:43:24;;;;;;;2.70;1.70;;;22.00;66.40;;;;;;5069843;28;20485;-30
2023/12/15 10:45:51;;;;;;;3.15;1.65;;;20.90;48.30;;;;;;5063501;28;20049;-26
2023/12/15 10:48:19;;;;;;;3.28;1.80;;;21.80;46.70;;;;;;5061461;28;20056;-29
2023/12/15 10:50:46;;;;;;;3.13;1.70;;;20.90;64.00;;;;;;5060711;28;20048;-29
2023/12/15 10:53:13;;;;;;;2.72;1.60;;;21.80;46.70;;;;;;5060906;28;20059;-26
2023/12/15 10:55:40;;;;;;;2.63;1.45;;;21.70;66.20;;;;;;5062797;28;20173;-32
2023/12/15 10:58:10;;;;;;;4.15;2.05;;;22.60;66.50;;;;;;5067818;28;20117;-27
2023/12/15 11:00:38;;;;;;;4.55;1.80;;;;;;;;;;5064348;28;20124;-26
2023/12/15 11:03:05;;;;;;;4.30;2.05;;;;;;;;;;5061559;28;20040;-28
2023/12/15 11:05:34;;;;;;;4.43;2.00;;;21.30;66.00;;;;;;5060845;28;20166;-30
2023/12/15 11:08:01;;;;;;;3.28;1.52;;;;;;;;;;5061285;28;20396;-27
2023/12/15 11:10:28;;;;;;;3.97;1.67;;;22.80;66.80;;;;;;5059001;28;20056;-25
2023/12/15 11:12:55;;;;;;;4.47;1.80;;;;;;;;;;5061646;28;20472;-27
2023/12/15 11:15:26;;;;;;;3.05;1.95;;;21.70;46.80;;;;;;5061379;28;20045;-28
2023/12/15 11:17:54;;;;;;;4.15;2.00;;;22.00;66.20;;;;;;5061157;28;20071;-29
2023/12/15 11:20:41;;;;;;;2.97;1.77;;;21.60;46.70;;;;;;5061728;28;20044;-27
2023/12/15 11:23:08;;;;;;;4.03;1.80;;;21.60;46.80;;;;;;5062663;28;20048;-27
2023/12/15 11:25:37;;;;;;;4.63;2.00;;;21.50;46.80;;;;;;5059489;28;20091;-27
2023/12/15 11:28:08;;;;;;;4.63;1.90;;;20.90;55.30;;;;;;5054723;28;20053;-27
2023/12/15 11:30:39;;;;;;;4.07;1.75;;;21.60;66.10;;;;;;5051700;28;20626;-23
2023/12/15 11:33:43;;;;;;;4.30;1.90;;;21.50;46.80;;;;;;5051825;28;20048;-28
2023/12/15 11:36:12;;;;;;;5.47;1.80;;;21.10;66.10;;;;;;5053670;28;20482;-30
2023/12/15 11:38:39;;;;;;;3.78;2.03;;;21.50;66.50;;;;;;5071718;28;20456;-27
2023/12/15 11:41:06;;;;;;;3.58;1.60;;;21.40;66.30;;;;;;5070467;28;20052;-31
2023/12/15 11:43:36;;;;;;;4.45;2.20;;;21.30;66.30;;;;;;5071737;28;20064;-29
2023/12/15 11:46:04;;;;;;;4.78;2.50;;;21.30;54.80;;;;;;5071804;28;20053;-30
2023/12/15 11:48:32;;;;;;;6.00;1.70;;;;;;;;;;5071365;28;20102;-27
2023/12/15 11:50:58;;;;;;;3.90;2.05;;;21.10;56.20;;;;;;5071753;28;20056;-27
2023/12/15 11:53:26;;;;;;;5.18;2.03;;;;;;;;;;5071891;28;20044;-27
2023/12/15 11:55:53;;;;;;;5.18;2.13;;;;;;;;;;5071481;28;20494;-29
2023/12/15 11:58:21;;;;;;;3.65;1.80;;;21.50;67.10;;;;;;5066858;28;20067;-24
2023/12/15 12:00:48;;;;;;;3.92;1.73;;;21.40;66.90;;;;;;5071166;28;20113;-30
2023/12/15 12:03:19;;;;;;;4.75;2.13;;;21.50;67.00;;;;;;5071811;28;20048;-24
2023/12/15 12:05:47;;;;;;;4.55;2.10;;;;;;;;;;5071570;28;20051;-27
2023/12/15 12:08:14;;;;;;;5.03;2.13;;;20.60;66.20;;;;;;5035349;28;20426;-25
2023/12/15 12:10:42;;;;;;;5.18;2.30;;;21.00;47.10;;;;;;5051481;28;20095;-28
2023/12/15 12:13:10;;;;;;;7.10;2.78;;;20.30;66.60;;;;;;5051092;28;20053;-23
2023/12/15 12:15:49;;;;;;;6.10;2.42;;;22.00;67.60;;;;;;5051428;28;20053;-24
2023/12/15 12:18:18;;;;;;;5.60;2.30;;;20.80;66.60;;;;;;5057169;28;20045;-25
2023/12/15 12:20:45;;;;;;;4.18;2.20;;;21.00;67.10;;;;;;5071385;28;20048;-25
2023/12/15 12:23:12;;;;;;;4.88;2.20;;;20.60;60.60;;;;;;5071349;28;20048;-31
2023/12/15 12:25:42;;;;;;;4.78;2.38;;;20.70;47.20;;;;;;5058091;28;20132;-28
2023/12/15 12:28:09;;;;;;;5.30;2.25;;;20.40;50.50;;;;;;5051361;28;20397;-24
2023/12/15 12:30:36;;;;;;;5.20;2.15;;;20.30;55.40;;;;;;5050977;28;20049;-24
2023/12/15 12:33:03;;;;;;;5.50;2.50;;;21.70;59.20;;;;;;5051416;28;20049;-27
2023/12/15 12:35:31;;;;;;;5.68;2.35;;;20.50;47.30;;;;;;5050699;28;20103;-27
2023/12/15 12:37:58;;;;;;;4.85;2.15;;;;;;;;;;5052158;28;20049;-26
2023/12/15 12:40:25;;;;;;;5.97;2.72;;;20.50;67.20;;;;;;5050031;28;20052;-24
2023/12/15 12:42:53;;;;;;;5.90;2.47;;;20.30;55.70;;;;;;5051450;28;20057;-25
2023/12/15 12:45:20;;;;;;;4.63;2.40;;;20.20;60.00;;;;;;5051164;28;20126;-26
2023/12/15 12:47:49;;;;;;;5.10;2.03;;;20.40;67.60;;;;;;5050658;28;20041;-25
2023/12/15 12:50:17;;;;;;;8.00;2.70;;;20.30;47.70;;;;;;5050720;28;20045;-26
2023/12/15 12:52:45;;;;;;;5.50;2.33;;;19.70;67.10;;;;;;5052135;28;20049;-24
2023/12/15 12:55:12;;;;;;;4.60;2.25;;;;;;;;;;5053846;28;20041;-26
2023/12/15 12:57:39;;;;;;;7.43;2.15;;;20.00;67.20;;;;;;5052842;28;20106;-27
2023/12/15 13:00:08;;;;;;;5.22;2.30;;;19.30;67.10;;;;;;5053321;28;20053;-25
2023/12/15 13:02:35;;;;;;;5.43;2.10;;;20.20;47.70;;;;;;5052822;28;20269;-26
2023/12/15 13:05:02;;;;;;;6.13;2.30;;;19.80;67.20;;;;;;5051778;28;20297;-24
2023/12/15 13:07:29;;;;;;;4.22;2.10;;;;;;;;;;5051734;28;20480;-26
2023/12/15 13:09:57;;;;;;;4.13;2.00;;;19.20;67.00;;;;;;5051568;28;20045;-29
2023/12/15 13:12:24;;;;;;;9.07;2.28;;;19.90;53.60;;;;;;5052221;28;20053;-27